Strona główna
METAR-TAF:

METAR-TAF

Lotnisko :

Port lotniczy Ostenda-Brugia

Ostenda, Belgia

Szerokość geograficzna: 51-12N, Długość geograficzna: 002-52E, wysokość: 4 m

Aktualna obserwacja pogody

Raport powstał 31 minut temu, godzina 00:50 UTC
Wiatr 7 kt od wschodnio-południowy wschód
Temperatura 7°C
Wilgotność 66%
Ciśnienie 1021 hPa
Widzialność 10 km lub więcej
Brak chmur poniżej 1500 m i brak chmur cumulonimbus

METAR: EBOS 050050Z 11007KT CAVOK 07/01 Q1021 NOSIG

czas: 03:21 (01:21 UTC)

Prognoza

Raport powstał 2 godziny i 11 minut temu, godzina 23:10 UTC
Prognoza ważna od 05 godzina 00 UTC do 06 godzina 06 UTC
Wiatr 6 kt od południowy wschód
Widzialność 10 km lub więcej
Brak chmur poniżej 1500 m i brak chmur cumulonimbus

TAF: EBOS 042310Z 0500/0606 14006KT CAVOK

Obserwacja i prognoza pogody dla ponad 4000 lotnisk (raport METAR i TAF).

Dostępne stacje oznaczono żółtymi i czerwonymi punktami na mapie.

Najedź kursorem aby zobaczyć nazwę stacji.

Kliknij aby zobaczyć obserwacje i prognozy pogody.

Aby zmienić mapę: kliknij na zielony przycisk z czarnym krzyżykiem, aby powiększyć; na zielony przycisk z myślnikiem, aby pomniejszyć; na zielone strzałki, aby przejść do map sąsiednich.


METAR-TAF: